site sitenws-alerts: Checking more than four warning/county codes can delay the loading of your pages. You should use a cron job to get the data.

Nearby METAR Weather Reports

 

KETB - West Bend Municipal Airport, West Bend, WI
Updated: 02/25/2020 3:35am
Clear
Clear
 Wind from NE
Wind: NE 9 mph , 15 km/h
Temperature: 32°F , 0°C
Wind Chill: 24°F , -4°C
Dew Point: 28°F , -2°C
Humidity: 87%
Barometer: 29.97 inHg , 1014.9 hPa
Clouds: Clear
Visibility: 10 miles , 16 km
2020/02/25 09:35 KETB 250935Z AUTO 04008KT 10SM CLR 00/M02 A2997 RMK AO2
KOSH - Wittman Regional Airport, Oshkosh, WI
Updated: 02/25/2020 2:53am
Clear
Clear
 Wind from NNE
Wind: NNE 10 mph , 17 km/h
Temperature: 28°F , -2°C
Wind Chill: 19°F , -7°C
Dew Point: 21°F , -6°C
Humidity: 74%
Barometer: 30.00 inHg , 1015.9 hPa
Clouds: Clear
Visibility: 10 miles , 16 km
2020/02/25 08:53 KOSH 250853Z AUTO 03009KT 10SM CLR M02/M06 A3000 RMK AO2 SLP172 T10171056 50009
 
KSBM - Sheboygan County Memorial, Sheboygan, WI
Updated: 02/25/2020 2:53am
Clear
Clear
 Wind from NNE
Wind: NNE 15 mph , 24 km/h
Temperature: 34°F , 1°C
Wind Chill: 24°F , -4°C
Dew Point: 27°F , -3°C
Humidity: 75%
Barometer: 29.97 inHg , 1014.9 hPa
Clouds: Clear
Visibility: 10 miles , 16 km
2020/02/25 08:53 KSBM 250853Z AUTO 03013KT 10SM CLR 01/M03 A2997 RMK AO2 SLP158 T00061033 50006 $
KFLD - FDL County Airport, Fond du Lac, WI
Updated: 02/25/2020 2:53am
Clear
Clear
 Wind from NNE
Wind: NNE 14 mph , 22 km/h
Temperature: 28°F , -2°C
Wind Chill: 17°F , -8°C
Dew Point: 21°F , -6°C
Humidity: 74%
Barometer: 29.99 inHg , 1015.6 hPa
Clouds: Clear
Visibility: 10 miles , 16 km
2020/02/25 08:53 KFLD 250853Z AUTO 02012KT 10SM CLR M02/M06 A2999 RMK AO2 SLP164 T10171056 50008 $
 
KMKE - General Mitchell Field, Milwaukee, WI
Updated: 02/25/2020 2:52am
Partly cloudy
Partly cloudy
 Wind from NNE
Wind: NNE 17 mph , 28 km/h, Gust: 29 mph , 46 km/h
Temperature: 36°F , 2°C
Wind Chill: 26°F , -3°C
Dew Point: 28°F , -2°C
Humidity: 75%
Barometer: 29.92 inHg , 1013.2 hPa
Clouds: Partly cloudy
Visibility: 10 miles , 16 km
Cloud details: Partly cloudy 10000 ft
2020/02/25 08:52 KMKE 250852Z 03015G25KT 10SM SCT100 02/M02 A2992 RMK AO2 PK WND 04026/0825 SLP138 T00221017 51005
KMSN - Truax Field, Madison, WI
Updated: 02/25/2020 2:53am
Clear
Clear
 
Temperature: 30°F , -1°C
Dew Point: 25°F , -4°C
Humidity: 80%
Barometer: 29.95 inHg , 1014.2 hPa
Clouds: Clear
Visibility: 10 miles , 16 km
2020/02/25 08:53 KMSN 250853Z AUTO 10SM CLR M01/M04 A2995 RMK AO2 SLP150 T10061044 51006
 
KGRB - Austin Strable Field, Green Bay, WI
Updated: 02/25/2020 2:53am
Clear
Clear
 Wind from NNE
Wind: NNE 12 mph , 19 km/h
Temperature: 28°F , -2°C
Wind Chill: 18°F , -8°C
Dew Point: 23°F , -5°C
Humidity: 80%
Barometer: 30.03 inHg , 1016.9 hPa
Clouds: Clear
Visibility: 10 miles , 16 km
2020/02/25 08:53 KGRB 250853Z AUTO 02010KT 10SM CLR M02/M05 A3003 RMK AO2 SLP177 T10171050 53006
KSUW - Bong Airport, Superior, WI
Updated: 02/25/2020 3:35am
Overcast
Overcast
 Wind from NE
Wind: NE 7 mph , 11 km/h
Temperature: 32°F , 0°C
Wind Chill: 25°F , -4°C
Dew Point: 27°F , -3°C
Humidity: 80%
Barometer: 30.19 inHg , 1022.4 hPa
Clouds: Overcast
Visibility: 10 miles , 16 km
Cloud details: Overcast 1500 ft
2020/02/25 09:35 KSUW 250935Z AUTO 05006KT 10SM OVC015 00/M03 A3019 RMK AO2 T10051027
 
KLSE - La Crosse Municipal Airport, La Crosse, WI
Updated: 02/25/2020 2:53am
Clear
Clear
 Wind from NNE
Wind: NNE 6 mph , 9 km/h
Temperature: 32°F , 0°C
Wind Chill: 26°F , -3°C
Dew Point: 21°F , -6°C
Humidity: 64%
Barometer: 30.04 inHg , 1017.3 hPa
Clouds: Clear
Visibility: 10 miles , 16 km
2020/02/25 08:53 KLSE 250853Z AUTO 02005KT 10SM CLR 00/M06 A3004 RMK AO2 SLP183 T00001061 53018
KIMT - Ford Field, Iron Mountain, MI
Updated: 02/25/2020 2:54am
Clear
Clear
 Wind from N
Wind: N 7 mph , 11 km/h
Temperature: 21°F , -6°C
Wind Chill: 12°F , -11°C
Dew Point: 18°F , -8°C
Humidity: 86%
Barometer: 30.05 inHg , 1017.6 hPa
Clouds: Clear
Visibility: 10 miles , 16 km
2020/02/25 08:54 KIMT 250854Z AUTO 35006KT 10SM CLR M06/M08 A3005 RMK AO2 SLP192 T10561083 51007
 
KSAW - K.I. Sawyer Field, Marquette, MI
Updated: 02/25/2020 3:38am
Overcast
Overcast
 Wind from N
Wind: N 12 mph , 19 km/h
Temperature: 28°F , -2°C
Wind Chill: 18°F , -8°C
Dew Point: 25°F , -4°C
Humidity: 86%
Barometer: 30.06 inHg , 1017.9 hPa
Clouds: Overcast
Visibility: 10 miles , 16 km
Cloud details: Overcast 1700 ft
2020/02/25 09:38 KSAW 250938Z AUTO 35010KT 10SM OVC017 M02/M04 A3006 RMK AO2 T10211045
KIWD - Iron County Airport, Ironwood, MI
Updated: 02/25/2020 3:44am
Partly cloudy
Partly cloudy
 Wind from calm
Wind: Calm
Temperature: 12°F , -11°C
Dew Point: 10°F , -12°C
Humidity: 92%
Barometer: 30.16 inHg , 1021.3 hPa
Clouds: Partly cloudy
Visibility: 10 miles , 16 km
Cloud details: Partly cloudy 1100 ft
2020/02/25 09:44 KIWD 250944Z AUTO 00000KT 10SM SCT011 M11/M12 A3016 RMK AO2 FZRANO